Pine Valley, WI

11:01 PM CST on January 28, 2015 (GMT -0600)
central wisconsin | Change Station
CLOSE
Current Station
Personal Weather Station
Location: Pittsville, WI
Elevation: 945 ft
Nearby Weather Stations
Active Advisory: Freezing Rain Advisory

Elev 945 ft 44.35 °N, 90.34 °W | Updated 13 seconds ago

Overcast
Overcast
28.8 °F
Feels Like 29 °F
N
0.0
Wind Variable Wind from SW
Gusts 0.0 mph

Today
High -- | Low -- °F
--% Chance of Precip.
Yesterday
High -- | Low -- °F
Precip. -- in
7:25 AM 5:05 PM
Waxing Gibbous, 71% visible
Pressure 29.86 in
Visibility 5.0 miles
Clouds Overcast 1600 ft
Windchill 29 °F
Dew Point 21 °F
Humidity 72%
Rainfall 0.00 in
Snow Depth Not available.
UV 0.0 out of 12
Pollen .10 out of 12
Air Quality Not available.
Flu Activity Not available.
METAR KMFI 290454Z AUTO 12005KT 5SM HZ OVC016 M03/M06 A2980 RMK AO2 SLP110 T10281056

More Conditions Fewer Conditions

Pressure 29.86 in
Visibility 5.0 miles
Clouds Overcast 1600 ft
Windchill 29 °F
Dew Point 21 °F
Humidity 72%
Rainfall 0.00 in
Snow Depth Not available.
UV 0.0 out of 12
Pollen .10 out of 12
Air Quality Not available.
Flu Activity Not available.
METAR KMFI 290454Z AUTO 12005KT 5SM HZ OVC016 M03/M06 A2980 RMK AO2 SLP110 T10281056

More Conditions Fewer Conditions

10-Day Weather Forecast

Almanac

Astronomy

Jan. 28, 2015 Rise Set
Actual Time
Civil Twilight
Nautical Twilight
Astronomical Twilight
Moon
Length of Visible Light
Length of Day
Tomorrow will be .
, % of the Moon is Illuminated

Today's Extremes

State Highs State Lows

Community

WunderPhotos

Upload Photos

1,791,354 photos uploaded!

WunderBlogs® & News

Nearby

Air Quality

  Air Quality AQ Index Pollutant
Not available.

Snow Depth

Station Depth Elevation

Earthquake Activity

City Distance Mag. Time & Date
Minimum magnitude displayed is 2.5.

Coastal Water Temperatures

Place Temperature

Nearby Weather Stations